sensor_id;sensor_type;location;lat;lon;timestamp;P1;durP1;ratioP1;P2;durP2;ratioP2
74612;SDS011;63119;51.788;8.824;2022-10-16T00:01:32;4.20;;;2.80;;
74612;SDS011;63119;51.788;8.824;2022-10-16T00:03:58;5.50;;;2.50;;
74612;SDS011;63119;51.788;8.824;2022-10-16T00:06:25;5.82;;;2.03;;
74612;SDS011;63119;51.788;8.824;2022-10-16T00:08:52;6.13;;;2.47;;
74612;SDS011;63119;51.788;8.824;2022-10-16T00:11:19;5.45;;;2.70;;
74612;SDS011;63119;51.788;8.824;2022-10-16T00:13:47;5.47;;;2.42;;
74612;SDS011;63119;51.788;8.824;2022-10-16T00:16:14;4.53;;;2.55;;
74612;SDS011;63119;51.788;8.824;2022-10-16T00:18:40;7.18;;;2.78;;
74612;SDS011;63119;51.788;8.824;2022-10-16T00:21:07;5.80;;;3.00;;
74612;SDS011;63119;51.788;8.824;2022-10-16T00:23:38;4.15;;;2.55;;
74612;SDS011;63119;51.788;8.824;2022-10-16T00:26:05;4.78;;;2.50;;
74612;SDS011;63119;51.788;8.824;2022-10-16T00:28:32;5.75;;;2.63;;
74612;SDS011;63119;51.788;8.824;2022-10-16T00:30:57;6.05;;;2.60;;
74612;SDS011;63119;51.788;8.824;2022-10-16T00:33:23;6.28;;;2.80;;
74612;SDS011;63119;51.788;8.824;2022-10-16T00:35:49;5.80;;;2.92;;
74612;SDS011;63119;51.788;8.824;2022-10-16T00:38:15;3.92;;;2.60;;
74612;SDS011;63119;51.788;8.824;2022-10-16T00:40:41;4.80;;;2.33;;
74612;SDS011;63119;51.788;8.824;2022-10-16T00:43:12;4.07;;;2.83;;
74612;SDS011;63119;51.788;8.824;2022-10-16T00:45:39;3.78;;;2.58;;
74612;SDS011;63119;51.788;8.824;2022-10-16T00:48:06;5.97;;;3.22;;
74612;SDS011;63119;51.788;8.824;2022-10-16T00:50:38;6.00;;;3.00;;
74612;SDS011;63119;51.788;8.824;2022-10-16T00:53:04;4.70;;;2.47;;
74612;SDS011;63119;51.788;8.824;2022-10-16T00:55:30;4.15;;;2.30;;
74612;SDS011;63119;51.788;8.824;2022-10-16T00:57:55;5.88;;;2.45;;
74612;SDS011;63119;51.788;8.824;2022-10-16T01:00:23;4.93;;;2.80;;
74612;SDS011;63119;51.788;8.824;2022-10-16T01:02:54;6.47;;;3.00;;
74612;SDS011;63119;51.788;8.824;2022-10-16T01:05:22;4.90;;;3.00;;
74612;SDS011;63119;51.788;8.824;2022-10-16T01:08:02;3.85;;;2.45;;
74612;SDS011;63119;51.788;8.824;2022-10-16T01:10:38;4.55;;;2.75;;
74612;SDS011;63119;51.788;8.824;2022-10-16T01:13:10;4.55;;;2.33;;
74612;SDS011;63119;51.788;8.824;2022-10-16T01:18:32;4.05;;;2.58;;
74612;SDS011;63119;51.788;8.824;2022-10-16T01:21:05;5.75;;;2.65;;
74612;SDS011;63119;51.788;8.824;2022-10-16T01:28:49;7.63;;;2.88;;
74612;SDS011;63119;51.788;8.824;2022-10-16T01:31:20;7.03;;;2.65;;
74612;SDS011;63119;51.788;8.824;2022-10-16T01:34:10;4.68;;;2.70;;
74612;SDS011;63119;51.788;8.824;2022-10-16T01:36:51;5.60;;;2.47;;
74612;SDS011;63119;51.788;8.824;2022-10-16T01:39:21;8.35;;;2.70;;
74612;SDS011;63119;51.788;8.824;2022-10-16T01:41:52;4.00;;;2.22;;
74612;SDS011;63119;51.788;8.824;2022-10-16T01:44:28;3.40;;;2.70;;
74612;SDS011;63119;51.788;8.824;2022-10-16T01:46:56;4.47;;;2.50;;
74612;SDS011;63119;51.788;8.824;2022-10-16T01:49:22;4.13;;;2.45;;
74612;SDS011;63119;51.788;8.824;2022-10-16T01:51:52;6.63;;;2.72;;
74612;SDS011;63119;51.788;8.824;2022-10-16T01:54:21;6.93;;;2.95;;
74612;SDS011;63119;51.788;8.824;2022-10-16T01:56:50;4.75;;;2.78;;
74612;SDS011;63119;51.788;8.824;2022-10-16T01:59:16;5.15;;;2.47;;
74612;SDS011;63119;51.788;8.824;2022-10-16T02:01:47;3.72;;;2.58;;
74612;SDS011;63119;51.788;8.824;2022-10-16T02:04:19;4.60;;;2.50;;
74612;SDS011;63119;51.788;8.824;2022-10-16T02:06:52;7.43;;;2.42;;
74612;SDS011;63119;51.788;8.824;2022-10-16T02:09:18;5.88;;;2.95;;
74612;SDS011;63119;51.788;8.824;2022-10-16T02:11:43;6.00;;;3.05;;
74612;SDS011;63119;51.788;8.824;2022-10-16T02:14:09;5.28;;;2.83;;
74612;SDS011;63119;51.788;8.824;2022-10-16T02:16:36;5.80;;;2.63;;
74612;SDS011;63119;51.788;8.824;2022-10-16T02:19:03;4.45;;;2.70;;
74612;SDS011;63119;51.788;8.824;2022-10-16T02:24:46;6.75;;;2.80;;
74612;SDS011;63119;51.788;8.824;2022-10-16T02:27:26;5.05;;;2.60;;
74612;SDS011;63119;51.788;8.824;2022-10-16T02:30:13;4.38;;;2.40;;
74612;SDS011;63119;51.788;8.824;2022-10-16T02:32:44;3.85;;;2.17;;
74612;SDS011;63119;51.788;8.824;2022-10-16T02:35:12;4.50;;;2.10;;
74612;SDS011;63119;51.788;8.824;2022-10-16T02:37:39;5.47;;;1.98;;
74612;SDS011;63119;51.788;8.824;2022-10-16T02:40:06;3.30;;;2.00;;
74612;SDS011;63119;51.788;8.824;2022-10-16T02:42:33;3.17;;;2.00;;
74612;SDS011;63119;51.788;8.824;2022-10-16T02:44:59;3.05;;;2.00;;
74612;SDS011;63119;51.788;8.824;2022-10-16T02:47:25;4.80;;;2.00;;
74612;SDS011;63119;51.788;8.824;2022-10-16T02:49:50;4.20;;;1.93;;
74612;SDS011;63119;51.788;8.824;2022-10-16T02:52:15;5.60;;;2.00;;
74612;SDS011;63119;51.788;8.824;2022-10-16T02:54:41;4.97;;;1.67;;
74612;SDS011;63119;51.788;8.824;2022-10-16T02:57:06;3.37;;;1.83;;
74612;SDS011;63119;51.788;8.824;2022-10-16T02:59:31;4.57;;;1.93;;
74612;SDS011;63119;51.788;8.824;2022-10-16T03:01:56;5.23;;;1.60;;
74612;SDS011;63119;51.788;8.824;2022-10-16T03:04:22;2.27;;;1.47;;
74612;SDS011;63119;51.788;8.824;2022-10-16T03:06:47;3.53;;;1.60;;
74612;SDS011;63119;51.788;8.824;2022-10-16T03:09:12;3.70;;;1.57;;
74612;SDS011;63119;51.788;8.824;2022-10-16T03:11:37;2.60;;;1.60;;
74612;SDS011;63119;51.788;8.824;2022-10-16T03:14:03;2.35;;;1.20;;
74612;SDS011;63119;51.788;8.824;2022-10-16T03:16:28;4.57;;;1.40;;
74612;SDS011;63119;51.788;8.824;2022-10-16T03:18:53;3.47;;;1.47;;
74612;SDS011;63119;51.788;8.824;2022-10-16T03:21:19;2.40;;;1.50;;
74612;SDS011;63119;51.788;8.824;2022-10-16T03:23:44;3.67;;;1.20;;
74612;SDS011;63119;51.788;8.824;2022-10-16T03:26:09;2.20;;;1.37;;
74612;SDS011;63119;51.788;8.824;2022-10-16T03:28:34;3.30;;;1.23;;
74612;SDS011;63119;51.788;8.824;2022-10-16T03:31:00;4.27;;;1.40;;
74612;SDS011;63119;51.788;8.824;2022-10-16T03:33:25;3.97;;;1.30;;
74612;SDS011;63119;51.788;8.824;2022-10-16T03:35:51;3.10;;;1.50;;
74612;SDS011;63119;51.788;8.824;2022-10-16T03:38:18;4.13;;;1.70;;
74612;SDS011;63119;51.788;8.824;2022-10-16T03:40:43;4.10;;;1.40;;
74612;SDS011;63119;51.788;8.824;2022-10-16T03:43:08;2.97;;;1.20;;
74612;SDS011;63119;51.788;8.824;2022-10-16T03:45:33;3.00;;;1.33;;
74612;SDS011;63119;51.788;8.824;2022-10-16T03:47:59;3.40;;;1.43;;
74612;SDS011;63119;51.788;8.824;2022-10-16T03:50:24;2.67;;;1.50;;
74612;SDS011;63119;51.788;8.824;2022-10-16T03:52:49;3.03;;;1.40;;
74612;SDS011;63119;51.788;8.824;2022-10-16T03:55:15;1.88;;;1.10;;
74612;SDS011;63119;51.788;8.824;2022-10-16T03:57:40;3.00;;;1.30;;
74612;SDS011;63119;51.788;8.824;2022-10-16T04:00:05;2.30;;;1.20;;
74612;SDS011;63119;51.788;8.824;2022-10-16T04:02:31;2.78;;;1.67;;
74612;SDS011;63119;51.788;8.824;2022-10-16T04:04:56;4.50;;;2.22;;
74612;SDS011;63119;51.788;8.824;2022-10-16T04:07:22;2.00;;;1.33;;
74612;SDS011;63119;51.788;8.824;2022-10-16T04:09:47;2.53;;;1.47;;
74612;SDS011;63119;51.788;8.824;2022-10-16T04:12:12;3.07;;;1.40;;
74612;SDS011;63119;51.788;8.824;2022-10-16T04:14:37;3.13;;;1.40;;
74612;SDS011;63119;51.788;8.824;2022-10-16T04:17:03;6.77;;;1.50;;
74612;SDS011;63119;51.788;8.824;2022-10-16T04:19:28;3.60;;;1.33;;
74612;SDS011;63119;51.788;8.824;2022-10-16T04:21:53;2.13;;;1.43;;
74612;SDS011;63119;51.788;8.824;2022-10-16T04:24:18;1.93;;;1.10;;
74612;SDS011;63119;51.788;8.824;2022-10-16T04:26:44;2.63;;;1.57;;
74612;SDS011;63119;51.788;8.824;2022-10-16T04:29:09;4.07;;;1.53;;
74612;SDS011;63119;51.788;8.824;2022-10-16T04:31:34;2.17;;;1.30;;
74612;SDS011;63119;51.788;8.824;2022-10-16T04:34:00;3.53;;;1.40;;
74612;SDS011;63119;51.788;8.824;2022-10-16T04:36:25;2.78;;;1.55;;
74612;SDS011;63119;51.788;8.824;2022-10-16T04:38:50;3.00;;;1.37;;
74612;SDS011;63119;51.788;8.824;2022-10-16T04:41:15;2.20;;;1.10;;
74612;SDS011;63119;51.788;8.824;2022-10-16T04:43:41;3.03;;;1.10;;
74612;SDS011;63119;51.788;8.824;2022-10-16T04:46:06;1.47;;;1.17;;
74612;SDS011;63119;51.788;8.824;2022-10-16T04:48:31;2.45;;;1.25;;
74612;SDS011;63119;51.788;8.824;2022-10-16T04:50:57;3.37;;;1.37;;
74612;SDS011;63119;51.788;8.824;2022-10-16T04:53:22;4.10;;;1.30;;
74612;SDS011;63119;51.788;8.824;2022-10-16T04:55:49;3.88;;;1.30;;
74612;SDS011;63119;51.788;8.824;2022-10-16T04:58:14;1.85;;;1.20;;
74612;SDS011;63119;51.788;8.824;2022-10-16T05:00:40;6.05;;;1.27;;
74612;SDS011;63119;51.788;8.824;2022-10-16T05:03:05;1.53;;;1.30;;
74612;SDS011;63119;51.788;8.824;2022-10-16T05:07:59;3.47;;;1.10;;
74612;SDS011;63119;51.788;8.824;2022-10-16T05:10:24;2.92;;;1.23;;
74612;SDS011;63119;51.788;8.824;2022-10-16T05:12:49;1.87;;;1.13;;
74612;SDS011;63119;51.788;8.824;2022-10-16T05:15:16;1.95;;;1.40;;
74612;SDS011;63119;51.788;8.824;2022-10-16T05:17:42;2.85;;;0.95;;
74612;SDS011;63119;51.788;8.824;2022-10-16T05:20:07;2.23;;;1.10;;
74612;SDS011;63119;51.788;8.824;2022-10-16T05:22:33;2.53;;;1.20;;
74612;SDS011;63119;51.788;8.824;2022-10-16T05:24:58;1.53;;;1.17;;
74612;SDS011;63119;51.788;8.824;2022-10-16T05:27:23;1.93;;;1.10;;
74612;SDS011;63119;51.788;8.824;2022-10-16T05:29:48;1.83;;;0.97;;
74612;SDS011;63119;51.788;8.824;2022-10-16T05:32:14;2.63;;;1.20;;
74612;SDS011;63119;51.788;8.824;2022-10-16T05:34:40;3.30;;;1.90;;
74612;SDS011;63119;51.788;8.824;2022-10-16T05:37:06;1.67;;;1.00;;
74612;SDS011;63119;51.788;8.824;2022-10-16T05:39:31;1.38;;;1.02;;
74612;SDS011;63119;51.788;8.824;2022-10-16T05:41:56;1.40;;;1.10;;
74612;SDS011;63119;51.788;8.824;2022-10-16T05:44:22;1.65;;;0.95;;
74612;SDS011;63119;51.788;8.824;2022-10-16T05:46:47;3.90;;;1.10;;
74612;SDS011;63119;51.788;8.824;2022-10-16T05:49:12;2.67;;;1.08;;
74612;SDS011;63119;51.788;8.824;2022-10-16T05:51:38;1.45;;;1.00;;
74612;SDS011;63119;51.788;8.824;2022-10-16T05:54:03;2.88;;;1.20;;
74612;SDS011;63119;51.788;8.824;2022-10-16T05:56:29;2.10;;;1.10;;
74612;SDS011;63119;51.788;8.824;2022-10-16T05:58:54;3.40;;;1.10;;
74612;SDS011;63119;51.788;8.824;2022-10-16T06:01:19;1.50;;;1.15;;
74612;SDS011;63119;51.788;8.824;2022-10-16T06:03:45;2.70;;;0.85;;
74612;SDS011;63119;51.788;8.824;2022-10-16T06:06:12;3.33;;;1.20;;
74612;SDS011;63119;51.788;8.824;2022-10-16T06:08:45;2.53;;;1.02;;
74612;SDS011;63119;51.788;8.824;2022-10-16T06:11:13;1.85;;;1.20;;
74612;SDS011;63119;51.788;8.824;2022-10-16T06:13:41;2.80;;;1.08;;
74612;SDS011;63119;51.788;8.824;2022-10-16T06:16:08;2.58;;;1.33;;
74612;SDS011;63119;51.788;8.824;2022-10-16T06:18:35;3.70;;;1.20;;
74612;SDS011;63119;51.788;8.824;2022-10-16T06:21:06;1.75;;;1.08;;
74612;SDS011;63119;51.788;8.824;2022-10-16T06:23:33;2.72;;;1.20;;
74612;SDS011;63119;51.788;8.824;2022-10-16T06:26:07;1.60;;;1.30;;
74612;SDS011;63119;51.788;8.824;2022-10-16T06:28:34;2.20;;;1.08;;
74612;SDS011;63119;51.788;8.824;2022-10-16T06:31:00;1.33;;;0.90;;
74612;SDS011;63119;51.788;8.824;2022-10-16T06:33:26;1.67;;;1.55;;
74612;SDS011;63119;51.788;8.824;2022-10-16T06:35:51;3.13;;;1.10;;
74612;SDS011;63119;51.788;8.824;2022-10-16T06:38:16;1.80;;;1.20;;
74612;SDS011;63119;51.788;8.824;2022-10-16T06:40:42;1.00;;;0.90;;
74612;SDS011;63119;51.788;8.824;2022-10-16T06:43:07;2.77;;;1.30;;
74612;SDS011;63119;51.788;8.824;2022-10-16T06:45:32;5.47;;;1.00;;
74612;SDS011;63119;51.788;8.824;2022-10-16T06:47:58;2.00;;;1.17;;
74612;SDS011;63119;51.788;8.824;2022-10-16T06:50:23;2.63;;;1.17;;
74612;SDS011;63119;51.788;8.824;2022-10-16T06:52:48;2.97;;;1.03;;
74612;SDS011;63119;51.788;8.824;2022-10-16T06:55:14;2.42;;;1.20;;
74612;SDS011;63119;51.788;8.824;2022-10-16T06:57:40;2.22;;;1.10;;
74612;SDS011;63119;51.788;8.824;2022-10-16T07:00:05;3.00;;;1.17;;
74612;SDS011;63119;51.788;8.824;2022-10-16T07:02:31;2.15;;;1.30;;
74612;SDS011;63119;51.788;8.824;2022-10-16T07:04:56;4.53;;;1.40;;
74612;SDS011;63119;51.788;8.824;2022-10-16T07:07:22;1.70;;;1.33;;
74612;SDS011;63119;51.788;8.824;2022-10-16T07:09:49;1.58;;;0.93;;
74612;SDS011;63119;51.788;8.824;2022-10-16T07:12:15;1.13;;;0.80;;
74612;SDS011;63119;51.788;8.824;2022-10-16T07:14:40;2.57;;;1.20;;
74612;SDS011;63119;51.788;8.824;2022-10-16T07:17:05;2.37;;;1.10;;
74612;SDS011;63119;51.788;8.824;2022-10-16T07:19:30;1.42;;;1.10;;
74612;SDS011;63119;51.788;8.824;2022-10-16T07:21:56;3.15;;;1.52;;
74612;SDS011;63119;51.788;8.824;2022-10-16T07:24:22;2.53;;;1.23;;
74612;SDS011;63119;51.788;8.824;2022-10-16T07:26:47;1.58;;;1.20;;
74612;SDS011;63119;51.788;8.824;2022-10-16T07:29:19;2.17;;;1.20;;
74612;SDS011;63119;51.788;8.824;2022-10-16T07:31:46;1.70;;;1.10;;
74612;SDS011;63119;51.788;8.824;2022-10-16T07:34:14;2.78;;;1.30;;
74612;SDS011;63119;51.788;8.824;2022-10-16T07:36:40;2.90;;;1.13;;
74612;SDS011;63119;51.788;8.824;2022-10-16T07:39:06;3.17;;;1.33;;
74612;SDS011;63119;51.788;8.824;2022-10-16T07:41:31;2.05;;;1.10;;
74612;SDS011;63119;51.788;8.824;2022-10-16T07:43:57;2.17;;;1.00;;
74612;SDS011;63119;51.788;8.824;2022-10-16T07:46:25;1.92;;;0.80;;
74612;SDS011;63119;51.788;8.824;2022-10-16T07:48:51;4.50;;;1.35;;
74612;SDS011;63119;51.788;8.824;2022-10-16T07:51:18;2.30;;;1.15;;
74612;SDS011;63119;51.788;8.824;2022-10-16T07:53:45;2.47;;;1.05;;
74612;SDS011;63119;51.788;8.824;2022-10-16T07:56:11;1.20;;;0.93;;
74612;SDS011;63119;51.788;8.824;2022-10-16T07:58:37;1.27;;;0.82;;
74612;SDS011;63119;51.788;8.824;2022-10-16T08:01:06;1.37;;;0.80;;
74612;SDS011;63119;51.788;8.824;2022-10-16T08:03:33;1.75;;;0.90;;
74612;SDS011;63119;51.788;8.824;2022-10-16T08:05:59;3.25;;;1.00;;
74612;SDS011;63119;51.788;8.824;2022-10-16T08:08:25;2.17;;;0.80;;
74612;SDS011;63119;51.788;8.824;2022-10-16T08:10:51;2.78;;;0.95;;
74612;SDS011;63119;51.788;8.824;2022-10-16T08:13:17;2.15;;;0.80;;
74612;SDS011;63119;51.788;8.824;2022-10-16T08:15:42;1.40;;;0.80;;
74612;SDS011;63119;51.788;8.824;2022-10-16T08:18:09;1.95;;;0.80;;
74612;SDS011;63119;51.788;8.824;2022-10-16T08:20:35;2.75;;;0.70;;
74612;SDS011;63119;51.788;8.824;2022-10-16T08:23:00;3.10;;;0.83;;
74612;SDS011;63119;51.788;8.824;2022-10-16T08:25:26;2.70;;;0.90;;
74612;SDS011;63119;51.788;8.824;2022-10-16T08:27:52;1.20;;;0.70;;
74612;SDS011;63119;51.788;8.824;2022-10-16T08:30:18;2.83;;;0.97;;
74612;SDS011;63119;51.788;8.824;2022-10-16T08:32:44;1.30;;;0.70;;
74612;SDS011;63119;51.788;8.824;2022-10-16T08:35:09;2.10;;;0.68;;
74612;SDS011;63119;51.788;8.824;2022-10-16T08:37:36;1.80;;;0.90;;
74612;SDS011;63119;51.788;8.824;2022-10-16T08:40:02;2.45;;;0.88;;
74612;SDS011;63119;51.788;8.824;2022-10-16T08:42:32;1.67;;;0.63;;
74612;SDS011;63119;51.788;8.824;2022-10-16T08:50:45;2.53;;;1.00;;
74612;SDS011;63119;51.788;8.824;2022-10-16T08:53:17;1.52;;;0.60;;
74612;SDS011;63119;51.788;8.824;2022-10-16T08:55:49;2.92;;;1.00;;
74612;SDS011;63119;51.788;8.824;2022-10-16T08:58:17;1.83;;;0.88;;
74612;SDS011;63119;51.788;8.824;2022-10-16T09:00:46;1.08;;;0.70;;
74612;SDS011;63119;51.788;8.824;2022-10-16T09:19:46;1.50;;;0.80;;
74612;SDS011;63119;51.788;8.824;2022-10-16T09:22:26;1.52;;;0.80;;
74612;SDS011;63119;51.788;8.824;2022-10-16T09:24:54;1.65;;;0.90;;
74612;SDS011;63119;51.788;8.824;2022-10-16T09:27:24;3.00;;;0.77;;
74612;SDS011;63119;51.788;8.824;2022-10-16T09:29:51;2.72;;;0.70;;
74612;SDS011;63119;51.788;8.824;2022-10-16T09:32:20;3.13;;;1.30;;
74612;SDS011;63119;51.788;8.824;2022-10-16T09:34:47;1.65;;;0.88;;
74612;SDS011;63119;51.788;8.824;2022-10-16T09:37:19;1.67;;;0.90;;
74612;SDS011;63119;51.788;8.824;2022-10-16T09:39:51;1.90;;;0.70;;
74612;SDS011;63119;51.788;8.824;2022-10-16T09:44:55;1.75;;;0.90;;
74612;SDS011;63119;51.788;8.824;2022-10-16T09:47:22;2.15;;;1.00;;
74612;SDS011;63119;51.788;8.824;2022-10-16T09:49:54;1.77;;;0.88;;
74612;SDS011;63119;51.788;8.824;2022-10-16T09:52:31;1.75;;;0.80;;
74612;SDS011;63119;51.788;8.824;2022-10-16T09:54:58;1.63;;;0.80;;
74612;SDS011;63119;51.788;8.824;2022-10-16T09:57:25;1.60;;;0.90;;
74612;SDS011;63119;51.788;8.824;2022-10-16T09:59:52;0.85;;;0.70;;
74612;SDS011;63119;51.788;8.824;2022-10-16T10:02:19;2.65;;;1.08;;
74612;SDS011;63119;51.788;8.824;2022-10-16T10:04:54;1.77;;;0.70;;
74612;SDS011;63119;51.788;8.824;2022-10-16T10:07:23;1.48;;;1.00;;
74612;SDS011;63119;51.788;8.824;2022-10-16T10:09:51;3.50;;;1.27;;
74612;SDS011;63119;51.788;8.824;2022-10-16T10:12:21;3.22;;;0.80;;
74612;SDS011;63119;51.788;8.824;2022-10-16T10:14:50;2.65;;;1.45;;
74612;SDS011;63119;51.788;8.824;2022-10-16T10:17:18;2.13;;;0.90;;
74612;SDS011;63119;51.788;8.824;2022-10-16T10:19:50;1.08;;;0.80;;
74612;SDS011;63119;51.788;8.824;2022-10-16T10:24:54;3.72;;;1.23;;
74612;SDS011;63119;51.788;8.824;2022-10-16T10:27:21;3.05;;;0.93;;
74612;SDS011;63119;51.788;8.824;2022-10-16T10:40:50;1.80;;;0.82;;
74612;SDS011;63119;51.788;8.824;2022-10-16T10:43:40;3.35;;;0.93;;
74612;SDS011;63119;51.788;8.824;2022-10-16T10:46:35;1.45;;;1.08;;
74612;SDS011;63119;51.788;8.824;2022-10-16T10:49:09;3.97;;;0.93;;
74612;SDS011;63119;51.788;8.824;2022-10-16T10:51:58;0.80;;;0.60;;
74612;SDS011;63119;51.788;8.824;2022-10-16T10:54:42;1.38;;;0.80;;
74612;SDS011;63119;51.788;8.824;2022-10-16T10:57:29;1.45;;;0.82;;
74612;SDS011;63119;51.788;8.824;2022-10-16T11:00:10;2.20;;;1.02;;
74612;SDS011;63119;51.788;8.824;2022-10-16T11:03:00;1.45;;;0.70;;
74612;SDS011;63119;51.788;8.824;2022-10-16T11:08:43;1.48;;;0.90;;
74612;SDS011;63119;51.788;8.824;2022-10-16T11:11:17;1.13;;;0.60;;
74612;SDS011;63119;51.788;8.824;2022-10-16T11:16:27;1.55;;;0.68;;
74612;SDS011;63119;51.788;8.824;2022-10-16T11:18:56;0.77;;;0.50;;
74612;SDS011;63119;51.788;8.824;2022-10-16T11:21:27;1.55;;;0.50;;
74612;SDS011;63119;51.788;8.824;2022-10-16T11:26:26;6.38;;;1.20;;
74612;SDS011;63119;51.788;8.824;2022-10-16T11:28:56;1.25;;;0.50;;
74612;SDS011;63119;51.788;8.824;2022-10-16T11:31:40;3.50;;;0.80;;
74612;SDS011;63119;51.788;8.824;2022-10-16T11:39:18;4.03;;;1.02;;
74612;SDS011;63119;51.788;8.824;2022-10-16T11:41:47;2.00;;;0.60;;
74612;SDS011;63119;51.788;8.824;2022-10-16T11:49:44;1.13;;;0.60;;
74612;SDS011;63119;51.788;8.824;2022-10-16T11:54:47;3.20;;;0.75;;
74612;SDS011;63119;51.788;8.824;2022-10-16T12:00:09;2.05;;;0.68;;
74612;SDS011;63119;51.788;8.824;2022-10-16T12:03:05;1.38;;;0.60;;
74612;SDS011;63119;51.788;8.824;2022-10-16T12:08:22;0.70;;;0.57;;
74612;SDS011;63119;51.788;8.824;2022-10-16T12:10:48;2.15;;;0.70;;
74612;SDS011;63119;51.788;8.824;2022-10-16T12:18:40;1.50;;;0.70;;
74612;SDS011;63119;51.788;8.824;2022-10-16T12:21:11;1.95;;;0.70;;
74612;SDS011;63119;51.788;8.824;2022-10-16T12:23:47;2.28;;;0.40;;
74612;SDS011;63119;51.788;8.824;2022-10-16T12:26:27;1.42;;;0.50;;
74612;SDS011;63119;51.788;8.824;2022-10-16T12:28:55;2.63;;;0.70;;
74612;SDS011;63119;51.788;8.824;2022-10-16T12:31:22;1.55;;;0.63;;
74612;SDS011;63119;51.788;8.824;2022-10-16T12:33:55;1.48;;;0.50;;
74612;SDS011;63119;51.788;8.824;2022-10-16T12:36:41;3.83;;;0.70;;
74612;SDS011;63119;51.788;8.824;2022-10-16T12:39:16;2.08;;;0.63;;
74612;SDS011;63119;51.788;8.824;2022-10-16T12:41:46;1.35;;;0.63;;
74612;SDS011;63119;51.788;8.824;2022-10-16T12:44:23;2.57;;;0.60;;
74612;SDS011;63119;51.788;8.824;2022-10-16T12:46:51;1.80;;;0.70;;
74612;SDS011;63119;51.788;8.824;2022-10-16T12:49:29;1.45;;;0.50;;
74612;SDS011;63119;51.788;8.824;2022-10-16T12:52:02;1.42;;;0.50;;
74612;SDS011;63119;51.788;8.824;2022-10-16T12:54:29;1.48;;;0.50;;
74612;SDS011;63119;51.788;8.824;2022-10-16T13:05:12;1.27;;;0.50;;
74612;SDS011;63119;51.788;8.824;2022-10-16T13:15:55;1.35;;;0.60;;
74612;SDS011;63119;51.788;8.824;2022-10-16T13:18:32;1.70;;;0.80;;
74612;SDS011;63119;51.788;8.824;2022-10-16T13:23:59;1.67;;;0.90;;
74612;SDS011;63119;51.788;8.824;2022-10-16T13:29:06;3.67;;;0.73;;
74612;SDS011;63119;51.788;8.824;2022-10-16T13:31:31;2.80;;;0.60;;
74612;SDS011;63119;51.788;8.824;2022-10-16T13:33:58;1.27;;;0.57;;
74612;SDS011;63119;51.788;8.824;2022-10-16T13:36:29;1.50;;;0.60;;
74612;SDS011;63119;51.788;8.824;2022-10-16T13:41:42;3.97;;;0.70;;
74612;SDS011;63119;51.788;8.824;2022-10-16T13:44:11;5.18;;;0.80;;
74612;SDS011;63119;51.788;8.824;2022-10-16T13:46:40;2.70;;;0.68;;
74612;SDS011;63119;51.788;8.824;2022-10-16T13:49:10;0.50;;;0.40;;
74612;SDS011;63119;51.788;8.824;2022-10-16T13:51:38;2.28;;;0.55;;
74612;SDS011;63119;51.788;8.824;2022-10-16T13:54:03;2.60;;;0.60;;
74612;SDS011;63119;51.788;8.824;2022-10-16T13:56:29;1.95;;;0.70;;
74612;SDS011;63119;51.788;8.824;2022-10-16T13:59:06;1.13;;;0.60;;
74612;SDS011;63119;51.788;8.824;2022-10-16T14:04:14;1.17;;;0.60;;
74612;SDS011;63119;51.788;8.824;2022-10-16T14:06:41;2.38;;;0.90;;
74612;SDS011;63119;51.788;8.824;2022-10-16T14:09:14;1.52;;;0.60;;
74612;SDS011;63119;51.788;8.824;2022-10-16T14:11:58;2.05;;;0.70;;
74612;SDS011;63119;51.788;8.824;2022-10-16T14:14:27;2.20;;;0.68;;
74612;SDS011;63119;51.788;8.824;2022-10-16T14:17:05;0.95;;;0.60;;
74612;SDS011;63119;51.788;8.824;2022-10-16T14:19:30;2.38;;;0.60;;
74612;SDS011;63119;51.788;8.824;2022-10-16T14:21:56;1.92;;;0.55;;
74612;SDS011;63119;51.788;8.824;2022-10-16T14:26:49;1.23;;;0.55;;
74612;SDS011;63119;51.788;8.824;2022-10-16T14:29:18;1.80;;;0.55;;
74612;SDS011;63119;51.788;8.824;2022-10-16T14:31:54;1.38;;;0.47;;
74612;SDS011;63119;51.788;8.824;2022-10-16T14:34:28;1.90;;;0.63;;
74612;SDS011;63119;51.788;8.824;2022-10-16T14:37:05;4.80;;;0.80;;
74612;SDS011;63119;51.788;8.824;2022-10-16T14:39:38;0.88;;;0.50;;
74612;SDS011;63119;51.788;8.824;2022-10-16T14:42:04;0.85;;;0.50;;
74612;SDS011;63119;51.788;8.824;2022-10-16T14:44:41;2.70;;;1.08;;
74612;SDS011;63119;51.788;8.824;2022-10-16T14:47:07;1.45;;;0.80;;
74612;SDS011;63119;51.788;8.824;2022-10-16T14:49:37;3.85;;;0.70;;
74612;SDS011;63119;51.788;8.824;2022-10-16T14:52:05;2.03;;;0.83;;
74612;SDS011;63119;51.788;8.824;2022-10-16T14:54:35;1.48;;;0.80;;
74612;SDS011;63119;51.788;8.824;2022-10-16T14:57:00;3.70;;;1.67;;
74612;SDS011;63119;51.788;8.824;2022-10-16T14:59:29;2.67;;;0.63;;
74612;SDS011;63119;51.788;8.824;2022-10-16T15:01:58;2.08;;;0.70;;
74612;SDS011;63119;51.788;8.824;2022-10-16T15:04:25;1.40;;;0.70;;
74612;SDS011;63119;51.788;8.824;2022-10-16T15:06:50;2.00;;;0.60;;
74612;SDS011;63119;51.788;8.824;2022-10-16T15:09:15;2.53;;;0.55;;
74612;SDS011;63119;51.788;8.824;2022-10-16T15:11:41;2.97;;;0.60;;
74612;SDS011;63119;51.788;8.824;2022-10-16T15:14:08;3.58;;;0.70;;
74612;SDS011;63119;51.788;8.824;2022-10-16T15:16:37;2.17;;;0.68;;
74612;SDS011;63119;51.788;8.824;2022-10-16T15:19:02;1.03;;;0.53;;
74612;SDS011;63119;51.788;8.824;2022-10-16T15:21:28;1.87;;;0.70;;
74612;SDS011;63119;51.788;8.824;2022-10-16T15:23:55;1.88;;;0.73;;
74612;SDS011;63119;51.788;8.824;2022-10-16T15:26:22;1.45;;;0.73;;
74612;SDS011;63119;51.788;8.824;2022-10-16T15:28:48;2.13;;;0.90;;
74612;SDS011;63119;51.788;8.824;2022-10-16T15:31:13;1.93;;;1.00;;
74612;SDS011;63119;51.788;8.824;2022-10-16T15:33:38;1.17;;;0.53;;
74612;SDS011;63119;51.788;8.824;2022-10-16T15:36:04;1.93;;;0.80;;
74612;SDS011;63119;51.788;8.824;2022-10-16T15:38:30;1.10;;;0.80;;
74612;SDS011;63119;51.788;8.824;2022-10-16T15:40:55;6.15;;;1.15;;
74612;SDS011;63119;51.788;8.824;2022-10-16T15:43:21;5.32;;;1.50;;
74612;SDS011;63119;51.788;8.824;2022-10-16T15:45:52;1.37;;;0.80;;
74612;SDS011;63119;51.788;8.824;2022-10-16T15:48:28;1.83;;;1.00;;
74612;SDS011;63119;51.788;8.824;2022-10-16T15:50:55;2.42;;;0.70;;
74612;SDS011;63119;51.788;8.824;2022-10-16T15:53:20;4.38;;;0.98;;
74612;SDS011;63119;51.788;8.824;2022-10-16T15:55:45;3.22;;;1.30;;
74612;SDS011;63119;51.788;8.824;2022-10-16T15:58:11;5.07;;;2.25;;
74612;SDS011;63119;51.788;8.824;2022-10-16T16:00:36;8.45;;;3.10;;
74612;SDS011;63119;51.788;8.824;2022-10-16T16:03:02;5.50;;;2.83;;
74612;SDS011;63119;51.788;8.824;2022-10-16T16:05:28;5.65;;;2.15;;
74612;SDS011;63119;51.788;8.824;2022-10-16T16:07:53;6.20;;;2.90;;
74612;SDS011;63119;51.788;8.824;2022-10-16T16:10:19;3.70;;;1.60;;
74612;SDS011;63119;51.788;8.824;2022-10-16T16:12:46;3.33;;;1.02;;
74612;SDS011;63119;51.788;8.824;2022-10-16T16:15:16;3.33;;;1.27;;
74612;SDS011;63119;51.788;8.824;2022-10-16T16:17:41;3.57;;;2.93;;
74612;SDS011;63119;51.788;8.824;2022-10-16T16:20:07;19.60;;;9.73;;
74612;SDS011;63119;51.788;8.824;2022-10-16T16:22:33;10.13;;;4.22;;
74612;SDS011;63119;51.788;8.824;2022-10-16T16:24:58;13.65;;;7.10;;
74612;SDS011;63119;51.788;8.824;2022-10-16T16:27:23;4.97;;;1.90;;
74612;SDS011;63119;51.788;8.824;2022-10-16T16:29:49;3.65;;;1.52;;
74612;SDS011;63119;51.788;8.824;2022-10-16T16:32:15;9.50;;;3.58;;
74612;SDS011;63119;51.788;8.824;2022-10-16T16:34:40;13.57;;;4.10;;
74612;SDS011;63119;51.788;8.824;2022-10-16T16:37:05;6.30;;;2.55;;
74612;SDS011;63119;51.788;8.824;2022-10-16T16:39:31;6.87;;;2.93;;
74612;SDS011;63119;51.788;8.824;2022-10-16T16:41:56;6.33;;;2.20;;
74612;SDS011;63119;51.788;8.824;2022-10-16T16:44:23;5.88;;;2.03;;
74612;SDS011;63119;51.788;8.824;2022-10-16T16:46:49;4.05;;;1.73;;
74612;SDS011;63119;51.788;8.824;2022-10-16T16:49:14;4.10;;;1.77;;